sensor_id;sensor_type;location;lat;lon;timestamp;pressure;altitude;pressure_sealevel;temperature;humidity
74708;BME280;63360;50.104;8.074;2024-03-23T00:53:08;96337.25;;;5.98;100.00
74708;BME280;63360;50.104;8.074;2024-03-23T00:55:33;96330.94;;;6.13;100.00
74708;BME280;63360;50.104;8.074;2024-03-23T00:57:59;96327.28;;;6.05;100.00
74708;BME280;63360;50.104;8.074;2024-03-23T01:00:24;96323.13;;;5.96;100.00
74708;BME280;63360;50.104;8.074;2024-03-23T01:02:50;96322.50;;;5.99;100.00
74708;BME280;63360;50.104;8.074;2024-03-23T01:05:15;96318.81;;;5.91;100.00
74708;BME280;63360;50.104;8.074;2024-03-23T01:07:40;96320.03;;;5.85;100.00
74708;BME280;63360;50.104;8.074;2024-03-23T01:10:06;96324.03;;;5.78;100.00
74708;BME280;63360;50.104;8.074;2024-03-23T01:12:32;96326.06;;;5.67;100.00
74708;BME280;63360;50.104;8.074;2024-03-23T01:14:57;96321.22;;;5.66;100.00
74708;BME280;63360;50.104;8.074;2024-03-23T01:17:23;96316.66;;;5.63;100.00
74708;BME280;63360;50.104;8.074;2024-03-23T01:19:48;96313.28;;;5.62;100.00
74708;BME280;63360;50.104;8.074;2024-03-23T01:22:13;96300.81;;;5.56;100.00
74708;BME280;63360;50.104;8.074;2024-03-23T01:24:39;96301.69;;;5.51;100.00
74708;BME280;63360;50.104;8.074;2024-03-23T01:27:04;96295.00;;;5.50;100.00
74708;BME280;63360;50.104;8.074;2024-03-23T01:29:30;96289.44;;;5.57;100.00
74708;BME280;63360;50.104;8.074;2024-03-23T01:31:55;96291.16;;;5.61;100.00
74708;BME280;63360;50.104;8.074;2024-03-23T01:34:21;96288.69;;;5.56;100.00
74708;BME280;63360;50.104;8.074;2024-03-23T01:36:47;96293.38;;;5.54;100.00
74708;BME280;63360;50.104;8.074;2024-03-23T01:39:13;96285.59;;;5.45;100.00
74708;BME280;63360;50.104;8.074;2024-03-23T01:41:40;96275.84;;;5.42;100.00
74708;BME280;63360;50.104;8.074;2024-03-23T01:44:08;96267.63;;;5.40;100.00
74708;BME280;63360;50.104;8.074;2024-03-23T01:46:35;96266.00;;;5.44;100.00
74708;BME280;63360;50.104;8.074;2024-03-23T01:49:01;96264.19;;;5.45;100.00
74708;BME280;63360;50.104;8.074;2024-03-23T01:51:28;96251.16;;;5.50;100.00
74708;BME280;63360;50.104;8.074;2024-03-23T01:53:56;96241.38;;;5.61;100.00
74708;BME280;63360;50.104;8.074;2024-03-23T01:56:22;96241.31;;;5.52;100.00
74708;BME280;63360;50.104;8.074;2024-03-23T01:58:47;96244.53;;;5.58;100.00
74708;BME280;63360;50.104;8.074;2024-03-23T02:01:12;96253.25;;;5.70;100.00
74708;BME280;63360;50.104;8.074;2024-03-23T02:03:38;96242.81;;;5.75;100.00
74708;BME280;63360;50.104;8.074;2024-03-23T02:06:03;96234.59;;;5.73;100.00
74708;BME280;63360;50.104;8.074;2024-03-23T02:08:30;96243.75;;;5.79;100.00
74708;BME280;63360;50.104;8.074;2024-03-23T02:10:56;96238.75;;;5.83;100.00
74708;BME280;63360;50.104;8.074;2024-03-23T02:13:22;96239.72;;;5.87;100.00
74708;BME280;63360;50.104;8.074;2024-03-23T02:15:47;96230.72;;;5.84;100.00
74708;BME280;63360;50.104;8.074;2024-03-23T02:18:13;96233.84;;;5.95;100.00
74708;BME280;63360;50.104;8.074;2024-03-23T02:20:39;96227.91;;;5.94;100.00
74708;BME280;63360;50.104;8.074;2024-03-23T02:23:05;96229.00;;;6.02;100.00
74708;BME280;63360;50.104;8.074;2024-03-23T02:25:33;96219.44;;;6.02;100.00
74708;BME280;63360;50.104;8.074;2024-03-23T02:27:59;96205.94;;;6.05;100.00
74708;BME280;63360;50.104;8.074;2024-03-23T02:30:26;96207.19;;;6.17;100.00
74708;BME280;63360;50.104;8.074;2024-03-23T02:32:51;96208.91;;;6.30;100.00
74708;BME280;63360;50.104;8.074;2024-03-23T02:35:17;96196.91;;;6.34;100.00
74708;BME280;63360;50.104;8.074;2024-03-23T02:37:43;96202.56;;;6.53;100.00
74708;BME280;63360;50.104;8.074;2024-03-23T02:40:08;96196.22;;;6.67;100.00
74708;BME280;63360;50.104;8.074;2024-03-23T02:42:34;96198.34;;;6.74;100.00
74708;BME280;63360;50.104;8.074;2024-03-23T02:44:59;96194.56;;;6.89;100.00
74708;BME280;63360;50.104;8.074;2024-03-23T02:47:25;96207.91;;;7.16;100.00
74708;BME280;63360;50.104;8.074;2024-03-23T02:49:50;96200.03;;;7.13;100.00
74708;BME280;63360;50.104;8.074;2024-03-23T02:52:16;96207.00;;;7.12;100.00
74708;BME280;63360;50.104;8.074;2024-03-23T02:54:41;96200.47;;;7.15;100.00
74708;BME280;63360;50.104;8.074;2024-03-23T02:57:10;96197.13;;;7.06;100.00
74708;BME280;63360;50.104;8.074;2024-03-23T02:59:36;96201.41;;;7.02;100.00
74708;BME280;63360;50.104;8.074;2024-03-23T03:02:01;96204.44;;;6.95;100.00
74708;BME280;63360;50.104;8.074;2024-03-23T03:04:27;96187.84;;;6.96;100.00
74708;BME280;63360;50.104;8.074;2024-03-23T03:06:52;96181.94;;;6.96;100.00
74708;BME280;63360;50.104;8.074;2024-03-23T03:09:18;96177.22;;;6.89;100.00
74708;BME280;63360;50.104;8.074;2024-03-23T03:11:43;96174.16;;;6.96;100.00
74708;BME280;63360;50.104;8.074;2024-03-23T03:14:09;96172.47;;;7.08;100.00
74708;BME280;63360;50.104;8.074;2024-03-23T03:16:34;96173.84;;;6.97;100.00
74708;BME280;63360;50.104;8.074;2024-03-23T03:19:00;96184.50;;;7.13;100.00
74708;BME280;63360;50.104;8.074;2024-03-23T03:21:26;96151.66;;;6.96;100.00
74708;BME280;63360;50.104;8.074;2024-03-23T03:23:52;96174.47;;;7.03;100.00
74708;BME280;63360;50.104;8.074;2024-03-23T03:26:17;96187.84;;;6.96;100.00
74708;BME280;63360;50.104;8.074;2024-03-23T03:28:43;96195.31;;;6.89;100.00
74708;BME280;63360;50.104;8.074;2024-03-23T03:31:16;96196.06;;;6.90;100.00
74708;BME280;63360;50.104;8.074;2024-03-23T03:33:43;96198.19;;;6.88;100.00
74708;BME280;63360;50.104;8.074;2024-03-23T03:36:08;96200.63;;;6.76;100.00
74708;BME280;63360;50.104;8.074;2024-03-23T03:38:34;96221.13;;;6.63;100.00
74708;BME280;63360;50.104;8.074;2024-03-23T03:41:03;96246.47;;;6.53;100.00
74708;BME280;63360;50.104;8.074;2024-03-23T03:43:29;96243.66;;;6.24;100.00
74708;BME280;63360;50.104;8.074;2024-03-23T03:45:56;96265.72;;;6.30;100.00
74708;BME280;63360;50.104;8.074;2024-03-23T03:48:22;96248.59;;;6.03;100.00
74708;BME280;63360;50.104;8.074;2024-03-23T03:50:47;96259.84;;;6.07;100.00
74708;BME280;63360;50.104;8.074;2024-03-23T03:53:13;96256.94;;;6.00;100.00
74708;BME280;63360;50.104;8.074;2024-03-23T03:55:38;96260.69;;;5.94;100.00
74708;BME280;63360;50.104;8.074;2024-03-23T03:58:04;96269.34;;;5.89;100.00
74708;BME280;63360;50.104;8.074;2024-03-23T04:00:30;96264.75;;;5.86;100.00
74708;BME280;63360;50.104;8.074;2024-03-23T04:02:56;96267.78;;;5.88;100.00
74708;BME280;63360;50.104;8.074;2024-03-23T04:05:22;96253.66;;;5.86;100.00
74708;BME280;63360;50.104;8.074;2024-03-23T04:07:48;96245.44;;;5.84;100.00
74708;BME280;63360;50.104;8.074;2024-03-23T04:10:14;96240.22;;;5.75;100.00
74708;BME280;63360;50.104;8.074;2024-03-23T04:12:41;96239.25;;;5.85;100.00
74708;BME280;63360;50.104;8.074;2024-03-23T04:15:06;96245.69;;;5.74;100.00
74708;BME280;63360;50.104;8.074;2024-03-23T04:17:32;96221.66;;;5.65;100.00
74708;BME280;63360;50.104;8.074;2024-03-23T04:20:00;96239.13;;;5.68;100.00
74708;BME280;63360;50.104;8.074;2024-03-23T04:22:26;96241.25;;;5.66;100.00
74708;BME280;63360;50.104;8.074;2024-03-23T04:24:53;96228.81;;;5.68;100.00
74708;BME280;63360;50.104;8.074;2024-03-23T04:27:19;96242.94;;;5.70;100.00
74708;BME280;63360;50.104;8.074;2024-03-23T04:29:49;96243.53;;;5.67;100.00
74708;BME280;63360;50.104;8.074;2024-03-23T04:32:15;96249.03;;;5.74;100.00
74708;BME280;63360;50.104;8.074;2024-03-23T04:34:41;96256.06;;;5.82;100.00
74708;BME280;63360;50.104;8.074;2024-03-23T04:37:07;96248.28;;;5.74;100.00
74708;BME280;63360;50.104;8.074;2024-03-23T04:39:33;96266.03;;;5.75;100.00
74708;BME280;63360;50.104;8.074;2024-03-23T04:41:58;96257.44;;;5.58;100.00
74708;BME280;63360;50.104;8.074;2024-03-23T04:44:24;96259.13;;;5.62;100.00
74708;BME280;63360;50.104;8.074;2024-03-23T04:46:49;96256.97;;;5.56;100.00
74708;BME280;63360;50.104;8.074;2024-03-23T04:49:15;96263.94;;;5.55;100.00
74708;BME280;63360;50.104;8.074;2024-03-23T04:51:41;96252.66;;;5.42;100.00
74708;BME280;63360;50.104;8.074;2024-03-23T04:54:11;96285.88;;;5.44;100.00
74708;BME280;63360;50.104;8.074;2024-03-23T04:56:37;96289.47;;;5.43;100.00
74708;BME280;63360;50.104;8.074;2024-03-23T04:59:03;96293.91;;;5.42;100.00
74708;BME280;63360;50.104;8.074;2024-03-23T05:01:33;96279.25;;;5.29;100.00
74708;BME280;63360;50.104;8.074;2024-03-23T05:03:58;96298.69;;;5.35;100.00
74708;BME280;63360;50.104;8.074;2024-03-23T05:06:25;96299.91;;;5.38;100.00
74708;BME280;63360;50.104;8.074;2024-03-23T05:08:51;96299.34;;;5.19;100.00
74708;BME280;63360;50.104;8.074;2024-03-23T05:11:17;96300.91;;;5.28;100.00
74708;BME280;63360;50.104;8.074;2024-03-23T05:13:43;96310.88;;;5.21;100.00
74708;BME280;63360;50.104;8.074;2024-03-23T05:16:09;96336.09;;;5.11;100.00
74708;BME280;63360;50.104;8.074;2024-03-23T05:18:35;96321.91;;;5.00;100.00
74708;BME280;63360;50.104;8.074;2024-03-23T05:21:01;96337.28;;;4.91;100.00
74708;BME280;63360;50.104;8.074;2024-03-23T05:23:28;96333.34;;;4.80;100.00
74708;BME280;63360;50.104;8.074;2024-03-23T05:25:54;96321.34;;;4.75;100.00
74708;BME280;63360;50.104;8.074;2024-03-23T05:28:20;96310.56;;;4.73;100.00
74708;BME280;63360;50.104;8.074;2024-03-23T05:30:55;96319.44;;;4.67;100.00
74708;BME280;63360;50.104;8.074;2024-03-23T05:33:22;96343.75;;;4.61;100.00
74708;BME280;63360;50.104;8.074;2024-03-23T05:35:56;96372.97;;;4.70;100.00
74708;BME280;63360;50.104;8.074;2024-03-23T05:38:21;96366.94;;;4.61;100.00
74708;BME280;63360;50.104;8.074;2024-03-23T05:41:00;96383.94;;;4.62;100.00
74708;BME280;63360;50.104;8.074;2024-03-23T05:43:26;96380.69;;;4.57;100.00
74708;BME280;63360;50.104;8.074;2024-03-23T05:45:59;96378.19;;;4.52;100.00
74708;BME280;63360;50.104;8.074;2024-03-23T05:48:28;96376.47;;;4.47;100.00
74708;BME280;63360;50.104;8.074;2024-03-23T05:50:56;96386.97;;;4.51;100.00
74708;BME280;63360;50.104;8.074;2024-03-23T05:53:21;96368.47;;;4.49;100.00
74708;BME280;63360;50.104;8.074;2024-03-23T05:55:47;96346.81;;;4.36;100.00
74708;BME280;63360;50.104;8.074;2024-03-23T05:58:16;96370.25;;;4.35;100.00
74708;BME280;63360;50.104;8.074;2024-03-23T06:00:43;96337.34;;;4.32;100.00
74708;BME280;63360;50.104;8.074;2024-03-23T06:03:08;96343.06;;;4.42;100.00
74708;BME280;63360;50.104;8.074;2024-03-23T06:05:35;96340.50;;;4.42;100.00
74708;BME280;63360;50.104;8.074;2024-03-23T06:08:01;96344.16;;;4.41;100.00
74708;BME280;63360;50.104;8.074;2024-03-23T06:10:27;96340.47;;;4.28;100.00
74708;BME280;63360;50.104;8.074;2024-03-23T06:12:52;96383.31;;;4.38;100.00
74708;BME280;63360;50.104;8.074;2024-03-23T06:15:19;96386.63;;;4.25;100.00
74708;BME280;63360;50.104;8.074;2024-03-23T06:17:44;96402.09;;;4.25;100.00
74708;BME280;63360;50.104;8.074;2024-03-23T06:20:10;96413.72;;;4.22;100.00
74708;BME280;63360;50.104;8.074;2024-03-23T06:22:36;96423.91;;;4.27;100.00
74708;BME280;63360;50.104;8.074;2024-03-23T06:25:02;96425.94;;;4.31;100.00
74708;BME280;63360;50.104;8.074;2024-03-23T06:27:30;96435.81;;;4.23;100.00
74708;BME280;63360;50.104;8.074;2024-03-23T06:29:58;96445.94;;;4.20;100.00
74708;BME280;63360;50.104;8.074;2024-03-23T06:32:23;96457.72;;;4.21;100.00
74708;BME280;63360;50.104;8.074;2024-03-23T06:34:49;96442.94;;;4.13;100.00
74708;BME280;63360;50.104;8.074;2024-03-23T06:37:14;96453.59;;;4.06;100.00
74708;BME280;63360;50.104;8.074;2024-03-23T06:39:40;96443.00;;;4.08;100.00
74708;BME280;63360;50.104;8.074;2024-03-23T06:42:05;96451.78;;;4.07;100.00
74708;BME280;63360;50.104;8.074;2024-03-23T06:44:31;96454.91;;;4.04;100.00
74708;BME280;63360;50.104;8.074;2024-03-23T06:46:56;96467.72;;;4.09;100.00
74708;BME280;63360;50.104;8.074;2024-03-23T06:49:23;96479.69;;;4.32;100.00
74708;BME280;63360;50.104;8.074;2024-03-23T06:51:49;96478.28;;;4.40;100.00
74708;BME280;63360;50.104;8.074;2024-03-23T06:54:16;96480.59;;;4.41;100.00
74708;BME280;63360;50.104;8.074;2024-03-23T06:56:43;96464.47;;;4.36;100.00
74708;BME280;63360;50.104;8.074;2024-03-23T06:59:09;96491.94;;;4.40;100.00
74708;BME280;63360;50.104;8.074;2024-03-23T07:01:34;96498.72;;;4.36;100.00
74708;BME280;63360;50.104;8.074;2024-03-23T07:04:00;96511.59;;;4.36;100.00
74708;BME280;63360;50.104;8.074;2024-03-23T07:06:26;96513.16;;;4.32;100.00
74708;BME280;63360;50.104;8.074;2024-03-23T07:08:52;96509.00;;;4.36;100.00
74708;BME280;63360;50.104;8.074;2024-03-23T07:11:19;96511.16;;;4.29;100.00
74708;BME280;63360;50.104;8.074;2024-03-23T07:13:45;96509.81;;;4.32;100.00
74708;BME280;63360;50.104;8.074;2024-03-23T07:16:11;96521.38;;;4.34;100.00
74708;BME280;63360;50.104;8.074;2024-03-23T07:18:36;96518.31;;;4.32;100.00
74708;BME280;63360;50.104;8.074;2024-03-23T07:21:02;96538.28;;;4.40;100.00
74708;BME280;63360;50.104;8.074;2024-03-23T07:23:27;96517.59;;;4.45;100.00
74708;BME280;63360;50.104;8.074;2024-03-23T07:26:00;96535.47;;;4.55;100.00
74708;BME280;63360;50.104;8.074;2024-03-23T07:28:25;96540.91;;;4.54;100.00
74708;BME280;63360;50.104;8.074;2024-03-23T07:33:28;96548.84;;;4.57;100.00
74708;BME280;63360;50.104;8.074;2024-03-23T07:35:54;96558.38;;;4.57;100.00
74708;BME280;63360;50.104;8.074;2024-03-23T07:38:19;96549.81;;;4.61;100.00
74708;BME280;63360;50.104;8.074;2024-03-23T07:40:45;96552.88;;;4.63;100.00
74708;BME280;63360;50.104;8.074;2024-03-23T07:43:10;96556.34;;;4.72;100.00
74708;BME280;63360;50.104;8.074;2024-03-23T07:45:36;96574.84;;;4.74;100.00
74708;BME280;63360;50.104;8.074;2024-03-23T07:48:04;96577.16;;;4.76;100.00
74708;BME280;63360;50.104;8.074;2024-03-23T07:50:29;96580.38;;;4.68;100.00
74708;BME280;63360;50.104;8.074;2024-03-23T07:52:55;96584.13;;;4.75;100.00
74708;BME280;63360;50.104;8.074;2024-03-23T07:55:20;96575.66;;;4.56;100.00
74708;BME280;63360;50.104;8.074;2024-03-23T07:57:46;96582.41;;;4.52;100.00
74708;BME280;63360;50.104;8.074;2024-03-23T08:00:12;96588.38;;;4.66;100.00
74708;BME280;63360;50.104;8.074;2024-03-23T08:02:38;96597.31;;;4.87;100.00
74708;BME280;63360;50.104;8.074;2024-03-23T08:05:04;96598.44;;;5.14;100.00
74708;BME280;63360;50.104;8.074;2024-03-23T08:07:30;96603.00;;;5.49;100.00
74708;BME280;63360;50.104;8.074;2024-03-23T08:09:55;96588.56;;;5.34;100.00
74708;BME280;63360;50.104;8.074;2024-03-23T08:12:21;96599.69;;;5.89;100.00
74708;BME280;63360;50.104;8.074;2024-03-23T08:14:46;96590.13;;;6.03;100.00
74708;BME280;63360;50.104;8.074;2024-03-23T08:17:11;96587.66;;;6.34;100.00
74708;BME280;63360;50.104;8.074;2024-03-23T08:19:37;96575.31;;;6.31;100.00
74708;BME280;63360;50.104;8.074;2024-03-23T08:22:02;96573.31;;;6.28;100.00
74708;BME280;63360;50.104;8.074;2024-03-23T08:24:28;96585.19;;;6.29;100.00
74708;BME280;63360;50.104;8.074;2024-03-23T08:26:54;96576.44;;;6.17;100.00
74708;BME280;63360;50.104;8.074;2024-03-23T08:29:20;96573.66;;;5.99;100.00
74708;BME280;63360;50.104;8.074;2024-03-23T08:31:45;96578.41;;;6.33;100.00
74708;BME280;63360;50.104;8.074;2024-03-23T08:34:10;96580.50;;;6.31;100.00
74708;BME280;63360;50.104;8.074;2024-03-23T08:36:36;96593.03;;;6.24;100.00
74708;BME280;63360;50.104;8.074;2024-03-23T08:39:02;96597.53;;;6.32;100.00
74708;BME280;63360;50.104;8.074;2024-03-23T08:41:27;96577.84;;;6.23;100.00
74708;BME280;63360;50.104;8.074;2024-03-23T08:43:52;96581.66;;;6.61;100.00
74708;BME280;63360;50.104;8.074;2024-03-23T08:46:18;96581.66;;;6.61;100.00
74708;BME280;63360;50.104;8.074;2024-03-23T08:48:45;96570.94;;;6.98;100.00
74708;BME280;63360;50.104;8.074;2024-03-23T08:51:13;96579.06;;;7.36;100.00
74708;BME280;63360;50.104;8.074;2024-03-23T08:53:39;96576.41;;;8.06;100.00
74708;BME280;63360;50.104;8.074;2024-03-23T08:56:06;96576.13;;;8.33;100.00
74708;BME280;63360;50.104;8.074;2024-03-23T08:58:33;96576.59;;;8.44;100.00
74708;BME280;63360;50.104;8.074;2024-03-23T09:01:07;96571.38;;;8.95;100.00
74708;BME280;63360;50.104;8.074;2024-03-23T09:03:33;96590.78;;;8.64;100.00
74708;BME280;63360;50.104;8.074;2024-03-23T09:05:59;96590.19;;;8.58;100.00
74708;BME280;63360;50.104;8.074;2024-03-23T09:08:25;96578.59;;;8.56;100.00
74708;BME280;63360;50.104;8.074;2024-03-23T09:10:51;96585.00;;;8.75;100.00
74708;BME280;63360;50.104;8.074;2024-03-23T09:13:17;96575.25;;;8.29;100.00
74708;BME280;63360;50.104;8.074;2024-03-23T09:15:48;96584.06;;;8.63;100.00
74708;BME280;63360;50.104;8.074;2024-03-23T09:18:13;96592.78;;;8.67;100.00
74708;BME280;63360;50.104;8.074;2024-03-23T09:20:39;96585.09;;;8.19;100.00
74708;BME280;63360;50.104;8.074;2024-03-23T09:23:04;96587.28;;;7.77;100.00
74708;BME280;63360;50.104;8.074;2024-03-23T09:25:30;96595.16;;;8.20;100.00
74708;BME280;63360;50.104;8.074;2024-03-23T09:27:55;96596.03;;;8.07;100.00
74708;BME280;63360;50.104;8.074;2024-03-23T09:30:21;96596.72;;;7.34;100.00
74708;BME280;63360;50.104;8.074;2024-03-23T09:32:46;96600.09;;;7.12;100.00
74708;BME280;63360;50.104;8.074;2024-03-23T09:35:12;96608.91;;;7.11;100.00
74708;BME280;63360;50.104;8.074;2024-03-23T09:37:40;96601.78;;;7.17;100.00
74708;BME280;63360;50.104;8.074;2024-03-23T09:40:10;96607.00;;;7.25;100.00
74708;BME280;63360;50.104;8.074;2024-03-23T09:42:36;96607.72;;;7.17;100.00
74708;BME280;63360;50.104;8.074;2024-03-23T09:45:01;96603.25;;;7.40;100.00
74708;BME280;63360;50.104;8.074;2024-03-23T09:47:27;96603.66;;;7.56;100.00
74708;BME280;63360;50.104;8.074;2024-03-23T09:49:52;96602.81;;;7.69;100.00
74708;BME280;63360;50.104;8.074;2024-03-23T09:52:18;96611.53;;;7.42;100.00
74708;BME280;63360;50.104;8.074;2024-03-23T09:54:44;96602.75;;;7.29;100.00
74708;BME280;63360;50.104;8.074;2024-03-23T09:57:10;96611.53;;;7.20;100.00
74708;BME280;63360;50.104;8.074;2024-03-23T09:59:35;96617.59;;;7.15;100.00
74708;BME280;63360;50.104;8.074;2024-03-23T10:02:01;96616.28;;;7.26;100.00
74708;BME280;63360;50.104;8.074;2024-03-23T10:04:40;96623.19;;;7.31;100.00
74708;BME280;63360;50.104;8.074;2024-03-23T10:07:13;96628.88;;;6.97;100.00
74708;BME280;63360;50.104;8.074;2024-03-23T10:09:39;96684.75;;;6.49;100.00
74708;BME280;63360;50.104;8.074;2024-03-23T10:12:09;96683.63;;;5.87;100.00
74708;BME280;63360;50.104;8.074;2024-03-23T10:14:36;96638.06;;;5.50;100.00
74708;BME280;63360;50.104;8.074;2024-03-23T10:19:47;96648.69;;;5.16;100.00
74708;BME280;63360;50.104;8.074;2024-03-23T10:22:24;96652.31;;;5.15;100.00
74708;BME280;63360;50.104;8.074;2024-03-23T10:24:50;96658.50;;;5.14;100.00
74708;BME280;63360;50.104;8.074;2024-03-23T10:27:17;96660.16;;;5.24;100.00
74708;BME280;63360;50.104;8.074;2024-03-23T10:29:56;96653.13;;;5.29;100.00
74708;BME280;63360;50.104;8.074;2024-03-23T10:32:32;96647.47;;;5.27;100.00
74708;BME280;63360;50.104;8.074;2024-03-23T10:35:13;96647.09;;;5.34;100.00
74708;BME280;63360;50.104;8.074;2024-03-23T10:37:39;96659.06;;;5.43;100.00
74708;BME280;63360;50.104;8.074;2024-03-23T10:40:05;96642.81;;;5.43;100.00
74708;BME280;63360;50.104;8.074;2024-03-23T10:42:33;96653.16;;;5.57;100.00
74708;BME280;63360;50.104;8.074;2024-03-23T10:44:58;96644.47;;;5.53;100.00
74708;BME280;63360;50.104;8.074;2024-03-23T10:47:25;96651.81;;;5.59;100.00
74708;BME280;63360;50.104;8.074;2024-03-23T10:49:51;96653.09;;;5.75;100.00
74708;BME280;63360;50.104;8.074;2024-03-23T10:52:17;96652.25;;;5.80;100.00
74708;BME280;63360;50.104;8.074;2024-03-23T10:54:44;96655.91;;;5.92;100.00
74708;BME280;63360;50.104;8.074;2024-03-23T10:57:15;96642.63;;;5.85;100.00
74708;BME280;63360;50.104;8.074;2024-03-23T10:59:43;96640.13;;;5.94;100.00
74708;BME280;63360;50.104;8.074;2024-03-23T11:02:21;96634.94;;;5.94;100.00
74708;BME280;63360;50.104;8.074;2024-03-23T11:04:47;96631.31;;;6.08;100.00
74708;BME280;63360;50.104;8.074;2024-03-23T11:07:31;96633.25;;;6.03;100.00
74708;BME280;63360;50.104;8.074;2024-03-23T11:09:58;96622.72;;;6.13;100.00
74708;BME280;63360;50.104;8.074;2024-03-23T11:14:51;96635.16;;;5.97;100.00
74708;BME280;63360;50.104;8.074;2024-03-23T11:17:24;96628.66;;;6.00;100.00
74708;BME280;63360;50.104;8.074;2024-03-23T11:20:00;96609.53;;;6.01;100.00
74708;BME280;63360;50.104;8.074;2024-03-23T11:25:25;96612.88;;;6.51;100.00
74708;BME280;63360;50.104;8.074;2024-03-23T11:27:53;96605.66;;;6.61;100.00
74708;BME280;63360;50.104;8.074;2024-03-23T11:30:26;96600.09;;;6.90;100.00
74708;BME280;63360;50.104;8.074;2024-03-23T11:32:55;96603.50;;;6.99;100.00
74708;BME280;63360;50.104;8.074;2024-03-23T11:40:39;96596.66;;;7.25;100.00
74708;BME280;63360;50.104;8.074;2024-03-23T11:43:09;96581.22;;;7.43;100.00
74708;BME280;63360;50.104;8.074;2024-03-23T11:45:45;96572.47;;;7.69;100.00
74708;BME280;63360;50.104;8.074;2024-03-23T11:48:15;96564.69;;;7.52;100.00
74708;BME280;63360;50.104;8.074;2024-03-23T11:50:44;96582.72;;;7.74;100.00
74708;BME280;63360;50.104;8.074;2024-03-23T11:53:15;96579.56;;;7.94;100.00
74708;BME280;63360;50.104;8.074;2024-03-23T11:55:59;96585.19;;;7.88;100.00
74708;BME280;63360;50.104;8.074;2024-03-23T11:58:26;96577.25;;;7.93;100.00
74708;BME280;63360;50.104;8.074;2024-03-23T12:00:55;96563.41;;;7.89;100.00
74708;BME280;63360;50.104;8.074;2024-03-23T12:03:21;96540.53;;;7.82;100.00
74708;BME280;63360;50.104;8.074;2024-03-23T12:05:52;96553.53;;;8.00;100.00
74708;BME280;63360;50.104;8.074;2024-03-23T12:11:05;96552.22;;;8.45;100.00
74708;BME280;63360;50.104;8.074;2024-03-23T12:13:31;96547.03;;;8.45;100.00
74708;BME280;63360;50.104;8.074;2024-03-23T12:16:12;96542.31;;;8.47;100.00
74708;BME280;63360;50.104;8.074;2024-03-23T12:18:40;96531.78;;;8.52;100.00
74708;BME280;63360;50.104;8.074;2024-03-23T12:21:07;96552.50;;;8.52;100.00
74708;BME280;63360;50.104;8.074;2024-03-23T12:23:33;96553.72;;;8.54;100.00
74708;BME280;63360;50.104;8.074;2024-03-23T12:25:58;96540.00;;;8.28;100.00
74708;BME280;63360;50.104;8.074;2024-03-23T12:28:24;96553.09;;;8.15;100.00
74708;BME280;63360;50.104;8.074;2024-03-23T12:30:51;96561.78;;;8.10;98.88
74708;BME280;63360;50.104;8.074;2024-03-23T12:33:17;96556.78;;;7.57;100.00
74708;BME280;63360;50.104;8.074;2024-03-23T12:35:43;96577.44;;;7.49;100.00
74708;BME280;63360;50.104;8.074;2024-03-23T12:38:08;96596.97;;;6.80;100.00
74708;BME280;63360;50.104;8.074;2024-03-23T12:40:34;96645.28;;;6.07;100.00
74708;BME280;63360;50.104;8.074;2024-03-23T12:42:59;96654.91;;;5.61;100.00
74708;BME280;63360;50.104;8.074;2024-03-23T12:45:24;96661.25;;;5.04;100.00
74708;BME280;63360;50.104;8.074;2024-03-23T12:47:50;96648.03;;;4.73;100.00
74708;BME280;63360;50.104;8.074;2024-03-23T12:50:19;96629.44;;;4.58;100.00
74708;BME280;63360;50.104;8.074;2024-03-23T12:52:44;96624.25;;;4.44;100.00
74708;BME280;63360;50.104;8.074;2024-03-23T12:55:10;96615.59;;;4.54;100.00
74708;BME280;63360;50.104;8.074;2024-03-23T12:57:36;96610.44;;;4.54;100.00
74708;BME280;63360;50.104;8.074;2024-03-23T13:00:01;96615.59;;;4.72;100.00
74708;BME280;63360;50.104;8.074;2024-03-23T13:02:28;96624.06;;;4.92;100.00
74708;BME280;63360;50.104;8.074;2024-03-23T13:04:54;96614.88;;;5.18;100.00
74708;BME280;63360;50.104;8.074;2024-03-23T13:07:21;96620.44;;;5.25;100.00
74708;BME280;63360;50.104;8.074;2024-03-23T13:09:47;96623.69;;;5.30;100.00
74708;BME280;63360;50.104;8.074;2024-03-23T13:12:14;96613.25;;;5.22;100.00
74708;BME280;63360;50.104;8.074;2024-03-23T13:14:40;96624.25;;;5.27;100.00
74708;BME280;63360;50.104;8.074;2024-03-23T13:17:06;96609.06;;;5.26;100.00
74708;BME280;63360;50.104;8.074;2024-03-23T13:19:32;96601.94;;;5.36;100.00
74708;BME280;63360;50.104;8.074;2024-03-23T13:21:59;96607.38;;;5.48;100.00
74708;BME280;63360;50.104;8.074;2024-03-23T13:24:25;96586.19;;;5.51;100.00
74708;BME280;63360;50.104;8.074;2024-03-23T13:26:52;96589.72;;;5.56;100.00
74708;BME280;63360;50.104;8.074;2024-03-23T13:29:21;96590.50;;;5.56;100.00
74708;BME280;63360;50.104;8.074;2024-03-23T13:31:48;96586.59;;;5.59;100.00
74708;BME280;63360;50.104;8.074;2024-03-23T13:34:14;96590.09;;;5.63;100.00
74708;BME280;63360;50.104;8.074;2024-03-23T13:36:41;96578.75;;;5.50;100.00
74708;BME280;63360;50.104;8.074;2024-03-23T13:39:07;96586.94;;;5.52;100.00
74708;BME280;63360;50.104;8.074;2024-03-23T13:41:43;96573.94;;;5.30;100.00
74708;BME280;63360;50.104;8.074;2024-03-23T13:44:11;96581.84;;;5.20;100.00
74708;BME280;63360;50.104;8.074;2024-03-23T13:46:37;96601.22;;;5.17;100.00
74708;BME280;63360;50.104;8.074;2024-03-23T13:49:04;96592.13;;;5.06;100.00
74708;BME280;63360;50.104;8.074;2024-03-23T13:51:29;96588.78;;;5.06;100.00
74708;BME280;63360;50.104;8.074;2024-03-23T13:53:55;96574.75;;;5.12;100.00
74708;BME280;63360;50.104;8.074;2024-03-23T13:56:22;96556.81;;;5.07;100.00
74708;BME280;63360;50.104;8.074;2024-03-23T13:58:48;96557.28;;;5.09;100.00
74708;BME280;63360;50.104;8.074;2024-03-23T14:01:14;96551.00;;;5.28;100.00
74708;BME280;63360;50.104;8.074;2024-03-23T14:03:41;96551.91;;;5.37;100.00
74708;BME280;63360;50.104;8.074;2024-03-23T14:06:07;96545.19;;;5.36;100.00
74708;BME280;63360;50.104;8.074;2024-03-23T14:08:37;96540.16;;;5.45;100.00